Time;durP1;ratioP1;P1;durP2;ratioP2;P2;SDS_P1;SDS_P2;PMS_P1;PMS_P2;Temp;Humidity;BMP_temperature;BMP_pressure;BME280_temperature;BME280_humidity;BME280_pressure;Samples;Min_cycle;Max_cycle;Signal;HPM_P1;HPM_P2
2023/06/26 00:00:11;;;;;;;5.55;5.05;;;25.80;92.30;;;;;;5026409;28;20087;-35
2023/06/26 00:02:37;;;;;;;5.82;5.32;;;25.70;92.30;;;;;;5024851;28;20128;-35
2023/06/26 00:05:02;;;;;;;6.22;5.65;;;25.70;92.40;;;;;;5025818;28;20034;-36
2023/06/26 00:07:33;;;;;;;5.40;4.97;;;25.70;92.50;;;;;;5024850;28;20132;-36
2023/06/26 00:10:00;;;;;;;5.45;4.95;;;25.70;92.60;;;;;;5025937;28;20014;-36
2023/06/26 00:12:32;;;;;;;5.78;5.28;;;25.70;92.70;;;;;;5025471;28;20391;-35
2023/06/26 00:15:01;;;;;;;5.28;4.78;;;25.60;92.70;;;;;;5025357;28;20021;-36
2023/06/26 00:17:26;;;;;;;5.70;5.20;;;25.60;92.70;;;;;;5024199;28;20032;-36
2023/06/26 00:19:52;;;;;;;5.28;4.80;;;25.50;92.80;;;;;;5025877;28;20022;-36
2023/06/26 00:22:18;;;;;;;5.07;4.68;;;25.50;92.90;;;;;;5024882;28;20036;-35
2023/06/26 00:24:47;;;;;;;5.22;4.82;;;25.50;93.00;;;;;;5025578;28;20032;-35
2023/06/26 00:27:12;;;;;;;5.07;4.68;;;25.40;93.00;;;;;;5014658;28;20163;-36
2023/06/26 00:29:38;;;;;;;5.22;4.82;;;25.40;93.10;;;;;;5024950;28;20033;-35
2023/06/26 00:32:07;;;;;;;5.45;4.97;;;25.40;93.10;;;;;;5024899;28;20037;-35
2023/06/26 00:34:32;;;;;;;5.35;4.95;;;25.40;93.20;;;;;;5025499;28;20040;-36
2023/06/26 00:36:59;;;;;;;5.40;4.90;;;25.30;93.20;;;;;;5025407;28;20014;-35
2023/06/26 00:39:25;;;;;;;5.70;5.20;;;25.30;93.30;;;;;;5024389;28;20018;-35
2023/06/26 00:41:53;;;;;;;5.38;4.88;;;25.20;93.40;;;;;;5024218;28;20041;-36
2023/06/26 00:44:22;;;;;;;5.40;4.90;;;25.20;93.50;;;;;;5024707;28;20025;-35
2023/06/26 00:46:51;;;;;;;5.32;4.82;;;25.10;93.60;;;;;;5023934;28;20041;-35
2023/06/26 00:49:17;;;;;;;5.88;5.38;;;25.20;93.70;;;;;;5005555;28;20029;-35
2023/06/26 00:51:43;;;;;;;5.55;5.05;;;25.10;93.70;;;;;;5018822;28;20583;-35
2023/06/26 00:54:09;;;;;;;5.15;4.75;;;25.10;93.80;;;;;;5024514;28;20108;-35
2023/06/26 00:56:35;;;;;;;6.18;5.57;;;25.00;93.70;;;;;;5023968;28;20128;-35
2023/06/26 00:59:00;;;;;;;5.50;5.00;;;25.00;93.80;;;;;;5025246;28;20143;-37
2023/06/26 01:01:26;;;;;;;5.60;5.10;;;25.00;93.70;;;;;;5023934;28;20029;-35
2023/06/26 01:03:53;;;;;;;5.00;4.60;;;24.90;93.70;;;;;;5025050;28;20022;-35
2023/06/26 01:06:21;;;;;;;5.28;4.78;;;25.00;93.60;;;;;;5023583;28;20073;-35
2023/06/26 01:08:47;;;;;;;5.75;5.18;;;24.90;93.50;;;;;;5025437;28;20079;-35
2023/06/26 01:11:14;;;;;;;5.05;4.65;;;25.00;93.60;;;;;;5023904;28;20255;-36
2023/06/26 01:13:41;;;;;;;5.60;5.15;;;24.90;93.50;;;;;;5023507;28;20052;-34
2023/06/26 01:16:10;;;;;;;5.53;5.07;;;24.90;93.50;;;;;;5023568;28;20116;-33
2023/06/26 01:18:41;;;;;;;6.03;5.43;;;25.00;93.60;;;;;;5023644;28;20017;-34
2023/06/26 01:21:11;;;;;;;5.70;5.20;;;24.90;93.60;;;;;;5024545;28;20432;-34
2023/06/26 01:24:10;;;;;;;5.63;5.13;;;24.90;93.70;;;;;;5024611;28;20562;-33
2023/06/26 01:26:36;;;;;;;6.22;5.40;;;24.90;93.90;;;;;;5022239;28;20045;-33
2023/06/26 01:29:07;;;;;;;5.80;5.30;;;24.80;93.90;;;;;;5020381;28;20029;-33
2023/06/26 01:31:34;;;;;;;6.57;5.97;;;24.70;94.10;;;;;;5024081;28;20112;-33
2023/06/26 01:34:00;;;;;;;6.13;5.47;;;24.70;94.20;;;;;;5023868;28;20108;-35
2023/06/26 01:36:27;;;;;;;6.53;5.93;;;24.70;94.30;;;;;;5023113;28;20083;-34
2023/06/26 01:38:52;;;;;;;6.43;5.82;;;24.70;94.50;;;;;;5024125;28;20033;-35
2023/06/26 01:41:19;;;;;;;6.05;5.45;;;24.70;94.60;;;;;;5023801;28;20488;-35
2023/06/26 01:44:05;;;;;;;6.65;6.05;;;24.60;94.60;;;;;;5024864;28;20523;-34
2023/06/26 01:46:48;;;;;;;6.63;5.85;;;24.50;94.90;;;;;;5024225;28;20045;-35
2023/06/26 01:49:44;;;;;;;5.93;5.43;;;24.40;95.00;;;;;;5023285;28;20099;-36
2023/06/26 01:52:25;;;;;;;6.43;5.82;;;24.40;95.20;;;;;;5023677;28;20033;-34
2023/06/26 01:55:00;;;;;;;6.95;6.05;;;24.30;95.30;;;;;;5022556;28;20035;-35
2023/06/26 01:57:27;;;;;;;6.75;6.15;;;24.20;95.40;;;;;;5022363;28;20063;-36
2023/06/26 01:59:58;;;;;;;7.47;6.82;;;24.20;95.50;;;;;;5019902;28;20052;-34
2023/06/26 02:02:25;;;;;;;6.38;5.78;;;24.20;95.60;;;;;;5023647;28;20908;-35
2023/06/26 02:04:51;;;;;;;6.32;5.72;;;24.10;95.60;;;;;;5023900;28;20112;-35
2023/06/26 02:07:17;;;;;;;6.47;5.82;;;24.10;95.60;;;;;;5023213;28;20048;-35
2023/06/26 02:09:43;;;;;;;6.95;6.00;;;24.10;95.50;;;;;;5023205;28;20021;-36
2023/06/26 02:12:29;;;;;;;5.90;5.30;;;24.10;95.40;;;;;;5024691;28;20116;-35
2023/06/26 02:14:54;;;;;;;6.05;5.45;;;24.00;95.20;;;;;;5022686;28;20033;-36
2023/06/26 02:17:20;;;;;;;6.97;5.07;;;24.00;95.10;;;;;;5022707;28;20075;-35
2023/06/26 02:19:48;;;;;;;6.65;4.78;;;23.90;95.00;;;;;;5023957;28;20747;-35
2023/06/26 02:22:15;;;;;;;6.30;4.85;;;23.80;94.80;;;;;;5023320;28;20045;-34
2023/06/26 02:24:41;;;;;;;5.45;4.30;;;23.70;94.70;;;;;;5023100;28;20017;-34
2023/06/26 02:27:07;;;;;;;5.15;3.75;;;23.70;94.80;;;;;;5023549;28;20131;-34
2023/06/26 02:29:33;;;;;;;4.65;4.22;;;23.70;94.90;;;;;;5023056;28;20136;-36
2023/06/26 02:31:58;;;;;;;4.97;3.90;;;23.60;94.90;;;;;;5023305;28;20029;-34
2023/06/26 02:34:24;;;;;;;5.38;4.03;;;23.50;94.90;;;;;;5023652;28;20026;-35
2023/06/26 02:36:49;;;;;;;4.13;3.72;;;23.50;95.00;;;;;;5022541;28;20040;-34
2023/06/26 02:39:15;;;;;;;4.22;3.53;;;23.50;95.00;;;;;;5022874;28;20029;-35
2023/06/26 02:41:41;;;;;;;3.95;3.30;;;23.50;95.10;;;;;;5025226;28;20025;-34
2023/06/26 02:44:11;;;;;;;4.10;3.67;;;23.50;95.10;;;;;;5026683;28;20540;-34
2023/06/26 02:46:37;;;;;;;5.45;3.72;;;23.40;95.20;;;;;;5026112;28;20068;-38
2023/06/26 02:49:02;;;;;;;4.78;3.50;;;23.40;95.30;;;;;;5028097;28;20393;-34
2023/06/26 02:51:28;;;;;;;4.13;3.45;;;23.30;95.40;;;;;;5025936;28;20033;-34
2023/06/26 02:53:53;;;;;;;3.50;3.20;;;23.30;95.50;;;;;;5027412;28;20032;-34
2023/06/26 02:56:19;;;;;;;5.13;3.85;;;23.30;95.50;;;;;;5025412;28;20049;-34
2023/06/26 02:58:47;;;;;;;4.88;3.38;;;23.20;95.60;;;;;;5025734;28;20456;-34
2023/06/26 03:01:13;;;;;;;5.65;3.30;;;23.20;95.70;;;;;;5026629;28;20028;-33
2023/06/26 03:03:40;;;;;;;5.10;3.05;;;23.20;95.80;;;;;;5026808;28;20038;-34
2023/06/26 03:06:07;;;;;;;4.30;3.30;;;23.10;95.90;;;;;;5025575;28;20068;-33
2023/06/26 03:08:39;;;;;;;3.72;2.95;;;23.10;96.10;;;;;;5027361;28;20029;-35
2023/06/26 03:11:10;;;;;;;5.22;3.67;;;23.10;96.20;;;;;;5027281;28;20405;-35
2023/06/26 03:13:36;;;;;;;4.63;3.30;;;23.00;96.30;;;;;;5026607;28;20026;-34
2023/06/26 03:16:03;;;;;;;4.90;3.47;;;22.90;96.40;;;;;;5026522;28;20426;-34
2023/06/26 03:18:29;;;;;;;5.53;3.30;;;22.90;96.70;;;;;;5027208;28;20112;-34
2023/06/26 03:20:58;;;;;;;5.72;2.95;;;22.80;96.80;;;;;;5026060;28;20095;-33
2023/06/26 03:23:24;;;;;;;7.70;3.88;;;22.80;96.90;;;;;;5026650;28;20754;-33
2023/06/26 03:25:50;;;;;;;4.80;3.30;;;22.80;97.20;;;;;;5027119;28;20021;-36
2023/06/26 03:28:15;;;;;;;8.07;4.28;;;22.80;97.20;;;;;;5023957;28;20044;-33
2023/06/26 03:30:44;;;;;;;6.18;3.78;;;22.70;97.40;;;;;;5025277;28;20061;-34
2023/06/26 03:33:10;;;;;;;4.72;3.03;;;22.60;97.60;;;;;;5026625;28;20082;-34
2023/06/26 03:35:35;;;;;;;6.03;3.47;;;22.60;97.70;;;;;;5025758;28;20477;-33
2023/06/26 03:38:01;;;;;;;6.20;3.78;;;22.50;97.80;;;;;;5026074;28;20029;-34
2023/06/26 03:40:30;;;;;;;5.13;3.08;;;22.50;97.90;;;;;;5026047;28;20464;-32
2023/06/26 03:42:55;;;;;;;5.95;3.15;;;22.50;98.10;;;;;;5025696;28;20563;-34
2023/06/26 03:45:21;;;;;;;10.80;4.03;;;22.50;98.10;;;;;;5026049;28;20453;-34
2023/06/26 03:47:48;;;;;;;6.60;3.85;;;22.40;98.80;;;;;;5025554;28;20036;-35
2023/06/26 03:50:18;;;;;;;7.05;3.88;;;22.30;98.60;;;;;;5026518;28;20100;-34
2023/06/26 03:52:46;;;;;;;7.78;3.80;;;22.30;98.80;;;;;;5024808;28;20033;-34
2023/06/26 03:55:12;;;;;;;5.35;3.33;;;22.30;99.00;;;;;;5023440;28;20333;-35
2023/06/26 03:57:38;;;;;;;6.50;3.72;;;22.20;99.20;;;;;;5025883;28;20464;-34
2023/06/26 04:00:12;;;;;;;8.40;4.32;;;22.20;99.20;;;;;;5026110;28;20459;-34
2023/06/26 04:02:38;;;;;;;9.18;4.72;;;22.20;99.40;;;;;;5025647;28;20111;-34
2023/06/26 04:05:04;;;;;;;8.70;4.10;;;22.20;99.60;;;;;;5025304;28;20052;-33
2023/06/26 04:07:31;;;;;;;8.90;3.88;;;22.20;99.60;;;;;;5025470;28;20038;-34
2023/06/26 04:10:00;;;;;;;7.38;3.92;;;22.20;99.90;;;;;;5025797;28;20021;-33
2023/06/26 04:12:25;;;;;;;6.85;3.85;;;22.10;99.90;;;;;;5025351;28;20033;-34
2023/06/26 04:14:53;;;;;;;7.38;4.00;;;22.10;99.90;;;;;;5024851;28;20111;-34
2023/06/26 04:17:20;;;;;;;7.75;3.85;;;22.10;99.90;;;;;;5024508;28;20385;-34
2023/06/26 04:19:46;;;;;;;8.85;3.63;;;22.10;99.90;;;;;;5025603;28;20495;-34
2023/06/26 04:22:11;;;;;;;5.53;3.67;;;22.10;99.90;;;;;;5026189;28;20041;-34
2023/06/26 04:24:37;;;;;;;7.82;3.78;;;22.20;99.90;;;;;;5024453;28;20026;-34
2023/06/26 04:27:03;;;;;;;9.50;3.80;;;22.20;99.90;;;;;;5026089;28;20037;-33
2023/06/26 04:29:28;;;;;;;7.25;3.88;;;22.30;99.90;;;;;;5025330;28;20354;-34
2023/06/26 04:31:57;;;;;;;9.85;4.60;;;22.20;99.90;;;;;;5025124;28;20033;-35
2023/06/26 04:34:32;;;;;;;9.80;4.20;;;22.20;99.90;;;;;;5024128;28;20156;-34
2023/06/26 04:36:58;;;;;;;7.45;3.78;;;22.20;99.90;;;;;;5005384;28;20104;-33
2023/06/26 04:39:23;;;;;;;7.38;4.35;;;22.20;99.90;;;;;;5020486;28;20171;-35
2023/06/26 04:41:49;;;;;;;10.23;4.60;;;22.20;99.90;;;;;;5024243;28;20112;-34
2023/06/26 04:44:15;;;;;;;7.72;4.35;;;22.10;99.90;;;;;;5024961;28;20029;-35
2023/06/26 04:46:41;;;;;;;8.45;3.85;;;22.00;99.90;;;;;;5024633;28;20050;-35
2023/06/26 04:49:08;;;;;;;7.82;4.20;;;22.00;99.90;;;;;;5024847;28;20468;-36
2023/06/26 04:51:42;;;;;;;9.80;4.22;;;22.00;99.90;;;;;;5023446;28;20029;-34
2023/06/26 04:54:09;;;;;;;7.70;4.45;;;21.90;99.90;;;;;;5023940;28;20112;-33
2023/06/26 04:56:35;;;;;;;9.85;4.15;;;21.90;99.90;;;;;;5024233;28;20045;-35
2023/06/26 04:59:01;;;;;;;12.48;5.03;;;21.90;99.90;;;;;;5025077;28;20028;-34
2023/06/26 05:01:31;;;;;;;10.88;3.92;;;21.90;99.90;;;;;;5023334;28;20480;-34
2023/06/26 05:03:58;;;;;;;10.68;4.70;;;21.90;99.90;;;;;;5024750;28;20369;-36
2023/06/26 05:06:23;;;;;;;7.88;4.25;;;21.90;99.90;;;;;;5024215;28;20499;-34
2023/06/26 05:08:51;;;;;;;8.60;3.90;;;21.80;99.90;;;;;;5025237;28;20083;-34
2023/06/26 05:11:17;;;;;;;10.90;4.18;;;21.90;99.90;;;;;;5019358;28;20033;-34
2023/06/26 05:13:44;;;;;;;11.98;4.80;;;21.80;99.90;;;;;;5025639;28;20091;-35
2023/06/26 05:16:10;;;;;;;11.40;4.43;;;21.80;99.90;;;;;;5025248;28;20029;-35
2023/06/26 05:18:36;;;;;;;10.85;4.65;;;21.90;99.90;;;;;;5025247;28;20068;-34
2023/06/26 05:21:02;;;;;;;7.75;4.13;;;21.90;99.90;;;;;;5022553;28;20068;-34
2023/06/26 05:23:33;;;;;;;9.63;4.40;;;21.90;99.90;;;;;;5026771;28;20018;-33
2023/06/26 05:26:00;;;;;;;7.18;4.15;;;21.90;99.90;;;;;;5025028;28;20033;-34
2023/06/26 05:28:27;;;;;;;11.07;4.30;;;22.00;99.90;;;;;;5024679;28;20021;-34
2023/06/26 05:30:54;;;;;;;9.13;3.92;;;22.00;99.90;;;;;;5019186;28;20045;-34
2023/06/26 05:33:23;;;;;;;10.13;4.40;;;22.00;99.90;;;;;;5022279;28;20544;-34
2023/06/26 05:35:48;;;;;;;8.57;3.92;;;22.00;99.90;;;;;;5021556;28;20128;-34
2023/06/26 05:38:14;;;;;;;9.73;4.40;;;22.10;99.90;;;;;;5024826;28;20544;-33
2023/06/26 05:40:41;;;;;;;10.85;4.22;;;22.30;99.90;;;;;;5024031;28;20035;-34
2023/06/26 05:43:09;;;;;;;10.57;4.30;;;22.30;99.90;;;;;;5025562;28;20045;-34
2023/06/26 05:45:36;;;;;;;11.52;4.10;;;22.30;99.90;;;;;;5023832;28;20022;-34
2023/06/26 05:48:04;;;;;;;5.43;3.55;;;22.20;99.90;;;;;;5024279;28;20024;-34
2023/06/26 05:50:30;;;;;;;9.20;4.18;;;22.20;99.90;;;;;;5023708;28;20052;-33
2023/06/26 05:52:57;;;;;;;6.82;3.55;;;22.20;99.90;;;;;;5022715;28;20756;-33
2023/06/26 05:55:26;;;;;;;7.07;3.30;;;22.20;99.90;;;;;;5020614;28;20038;-33
2023/06/26 05:57:52;;;;;;;6.97;3.30;;;22.20;99.90;;;;;;5019440;28;20029;-33
2023/06/26 06:00:19;;;;;;;7.13;3.67;;;22.20;99.90;;;;;;5019564;28;20049;-33
2023/06/26 06:02:45;;;;;;;9.38;4.00;;;22.20;99.90;;;;;;5022414;28;20109;-33
2023/06/26 06:05:13;;;;;;;5.90;3.40;;;22.20;99.90;;;;;;5016585;28;20248;-33
2023/06/26 06:07:39;;;;;;;5.65;3.20;;;22.20;99.90;;;;;;5021308;28;20046;-33
2023/06/26 06:10:05;;;;;;;5.38;3.13;;;22.20;99.90;;;;;;5022173;28;20425;-33
2023/06/26 06:12:31;;;;;;;7.30;3.60;;;22.20;99.90;;;;;;5023109;28;20029;-34
2023/06/26 06:14:57;;;;;;;5.72;3.10;;;22.20;99.90;;;;;;5023822;28;20064;-35
2023/06/26 06:17:22;;;;;;;7.43;3.30;;;22.10;99.90;;;;;;5026530;28;20469;-36
2023/06/26 06:19:49;;;;;;;6.40;3.33;;;22.10;99.90;;;;;;5028079;28;20029;-34
2023/06/26 06:22:16;;;;;;;5.57;3.10;;;22.00;99.90;;;;;;5027335;28;20537;-35
2023/06/26 06:24:41;;;;;;;6.45;3.10;;;22.00;99.90;;;;;;5027859;28;20029;-34
2023/06/26 06:27:07;;;;;;;3.58;2.60;;;22.00;99.90;;;;;;5025366;28;20543;-34
2023/06/26 06:29:33;;;;;;;4.03;2.70;;;22.00;99.90;;;;;;5027068;28;20429;-34
2023/06/26 06:32:01;;;;;;;4.43;2.47;;;22.00;99.50;;;;;;5028164;28;20032;-34
2023/06/26 06:34:26;;;;;;;3.75;2.28;;;21.90;99.70;;;;;;5024037;28;20396;-33
2023/06/26 06:36:52;;;;;;;5.43;2.80;;;22.00;99.90;;;;;;5025319;28;20026;-34
2023/06/26 06:39:18;;;;;;;5.72;2.70;;;22.00;99.50;;;;;;5026401;28;20029;-34
2023/06/26 06:41:43;;;;;;;3.35;2.45;;;22.10;99.50;;;;;;5027685;28;20426;-34
2023/06/26 06:44:11;;;;;;;4.25;2.60;;;22.10;99.40;;;;;;5026078;28;20179;-34
2023/06/26 06:46:37;;;;;;;6.25;2.72;;;22.30;99.00;;;;;;5027025;28;20496;-33
2023/06/26 06:49:04;;;;;;;3.97;2.67;;;22.30;98.30;;;;;;5026311;28;20025;-34
2023/06/26 06:51:29;;;;;;;3.92;2.33;;;22.30;98.10;;;;;;5027224;28;20556;-37
2023/06/26 06:53:55;;;;;;;3.20;1.95;;;22.30;98.40;;;;;;5026825;28;20075;-34
2023/06/26 06:56:20;;;;;;;6.22;2.78;;;22.30;98.50;;;;;;5026678;28;20504;-32
2023/06/26 06:58:46;;;;;;;4.53;2.78;;;22.30;98.40;;;;;;5026383;28;20024;-33
2023/06/26 07:01:13;;;;;;;3.95;2.60;;;22.20;98.50;;;;;;5026772;28;20493;-33
2023/06/26 07:03:39;;;;;;;4.47;2.40;;;22.20;98.50;;;;;;5027193;28;20092;-33
2023/06/26 07:06:05;;;;;;;3.65;2.38;;;22.20;98.70;;;;;;5026941;28;20029;-34
2023/06/26 07:08:31;;;;;;;6.50;2.65;;;22.30;98.80;;;;;;5027213;28;20075;-33
2023/06/26 07:11:00;;;;;;;6.57;2.50;;;22.30;98.70;;;;;;5027696;28;20024;-34
2023/06/26 07:13:26;;;;;;;3.50;2.47;;;22.30;98.50;;;;;;5026638;28;20115;-34
2023/06/26 07:15:51;;;;;;;2.97;2.30;;;22.40;98.40;;;;;;5027495;28;20025;-33
2023/06/26 07:18:17;;;;;;;3.90;2.30;;;22.50;98.50;;;;;;5025039;28;20045;-34
2023/06/26 07:20:43;;;;;;;3.42;2.30;;;22.60;98.20;;;;;;5027094;28;20029;-34
2023/06/26 07:23:08;;;;;;;5.50;2.58;;;22.70;98.10;;;;;;5027085;28;20025;-34
2023/06/26 07:25:34;;;;;;;2.97;2.10;;;22.80;97.80;;;;;;5026878;28;20029;-34
2023/06/26 07:28:03;;;;;;;4.00;2.55;;;22.80;97.90;;;;;;5024674;28;20095;-33
2023/06/26 07:30:29;;;;;;;3.03;2.38;;;22.70;97.70;;;;;;5025692;28;20128;-34
2023/06/26 07:32:54;;;;;;;4.68;2.40;;;22.70;97.70;;;;;;5025714;28;20116;-34
2023/06/26 07:35:24;;;;;;;5.30;2.67;;;22.60;97.80;;;;;;5025956;28;20022;-32
2023/06/26 07:37:53;;;;;;;4.68;2.92;;;22.60;98.00;;;;;;5027234;28;20469;-33
2023/06/26 07:40:19;;;;;;;5.30;2.53;;;22.50;98.00;;;;;;5025114;28;20493;-35
2023/06/26 07:42:44;;;;;;;5.05;2.58;;;22.60;98.20;;;;;;5026859;28;20026;-35
2023/06/26 07:45:12;;;;;;;5.35;2.50;;;22.70;98.10;;;;;;5026448;28;20574;-35
2023/06/26 07:47:38;;;;;;;2.92;2.17;;;22.80;97.90;;;;;;5026228;28;20042;-35
2023/06/26 07:50:04;;;;;;;4.28;2.75;;;22.90;97.90;;;;;;5026310;28;20381;-34
2023/06/26 07:52:30;;;;;;;6.53;2.92;;;22.90;98.00;;;;;;5026708;28;20026;-34
2023/06/26 07:54:56;;;;;;;5.10;2.95;;;23.00;97.80;;;;;;5026349;28;20556;-33
2023/06/26 07:57:22;;;;;;;3.42;2.40;;;23.00;97.70;;;;;;5026124;28;20049;-32
2023/06/26 07:59:50;;;;;;;4.15;2.45;;;23.00;97.60;;;;;;5026283;28;20025;-33
2023/06/26 08:02:16;;;;;;;4.05;2.40;;;23.10;97.70;;;;;;5026248;28;20037;-34
2023/06/26 08:04:43;;;;;;;3.47;2.47;;;23.20;97.70;;;;;;5027227;28;20040;-33
2023/06/26 08:07:15;;;;;;;3.45;2.22;;;23.20;97.60;;;;;;5022824;28;20037;-32
2023/06/26 08:09:41;;;;;;;6.40;2.83;;;23.30;97.50;;;;;;5025285;28;20018;-34
2023/06/26 08:12:07;;;;;;;4.60;2.38;;;23.20;97.00;;;;;;5025981;28;20025;-33
2023/06/26 08:14:32;;;;;;;3.53;2.47;;;23.30;97.20;;;;;;5026213;28;20520;-34
2023/06/26 08:16:59;;;;;;;4.60;2.53;;;23.20;97.30;;;;;;5024252;28;20033;-34
2023/06/26 08:19:25;;;;;;;4.25;2.35;;;23.20;97.30;;;;;;5026317;28;20037;-34
2023/06/26 08:21:50;;;;;;;3.40;2.40;;;23.20;97.40;;;;;;5026035;28;20029;-33
2023/06/26 08:24:18;;;;;;;3.25;2.35;;;23.30;97.40;;;;;;5025591;28;20036;-35
2023/06/26 08:26:46;;;;;;;2.53;2.05;;;23.30;97.20;;;;;;5026147;28;20080;-35
2023/06/26 08:29:11;;;;;;;2.88;2.25;;;23.30;97.30;;;;;;5025179;28;20026;-33
2023/06/26 08:31:38;;;;;;;4.68;2.90;;;23.40;97.20;;;;;;5026288;28;20024;-33
2023/06/26 08:34:05;;;;;;;4.03;2.53;;;23.50;97.20;;;;;;5025830;28;20026;-33
2023/06/26 08:36:31;;;;;;;4.10;2.30;;;23.40;97.20;;;;;;5025390;28;20032;-34
2023/06/26 08:38:57;;;;;;;4.38;2.05;;;23.50;97.30;;;;;;5026560;28;20164;-32
2023/06/26 08:41:24;;;;;;;3.88;2.30;;;23.50;97.30;;;;;;5025204;28;20029;-33
2023/06/26 08:43:52;;;;;;;3.88;2.67;;;23.60;97.30;;;;;;5014452;28;20505;-33
2023/06/26 08:46:19;;;;;;;4.45;2.75;;;23.60;96.90;;;;;;5025164;28;20034;-33
2023/06/26 08:49:29;;;;;;;3.58;2.70;;;23.70;97.10;;;;;;5025678;28;20477;-34
2023/06/26 08:52:13;;;;;;;3.13;2.30;;;23.70;95.90;;;;;;5019009;28;20037;-33
2023/06/26 08:54:46;;;;;;;3.58;1.98;;;23.70;96.00;;;;;;5025586;28;20024;-34
2023/06/26 08:57:12;;;;;;;4.32;2.50;;;23.70;95.60;;;;;;5023859;28;20109;-33
2023/06/26 08:59:38;;;;;;;2.88;2.40;;;23.70;95.60;;;;;;5025327;28;20112;-33
2023/06/26 09:02:04;;;;;;;3.40;2.10;;;23.70;95.60;;;;;;5024116;28;20037;-33
2023/06/26 09:04:30;;;;;;;3.08;2.05;;;23.60;95.80;;;;;;5013397;28;20518;-33
2023/06/26 09:06:56;;;;;;;3.90;1.98;;;23.60;95.60;;;;;;5024951;28;20037;-34
2023/06/26 09:09:21;;;;;;;4.00;1.90;;;23.60;95.50;;;;;;5024571;28;20100;-35
2023/06/26 09:11:47;;;;;;;5.13;1.80;;;23.60;95.50;;;;;;5024394;28;20488;-34
2023/06/26 09:14:13;;;;;;;4.60;1.65;;;23.60;95.50;;;;;;5024466;28;20678;-33
2023/06/26 09:16:42;;;;;;;3.40;1.90;;;23.60;95.20;;;;;;5025190;28;20052;-33
2023/06/26 09:19:12;;;;;;;3.08;1.75;;;23.60;94.60;;;;;;5023586;28;20061;-33
2023/06/26 09:21:41;;;;;;;3.28;1.73;;;23.50;94.40;;;;;;5025011;28;20025;-34
2023/06/26 09:24:10;;;;;;;1.50;1.40;;;23.40;94.30;;;;;;5023728;28;20064;-34
2023/06/26 09:26:38;;;;;;;4.20;1.40;;;23.40;93.80;;;;;;5003979;28;20136;-34
2023/06/26 09:29:04;;;;;;;3.83;1.40;;;23.40;93.60;;;;;;5019542;28;20017;-35
2023/06/26 09:31:30;;;;;;;4.03;1.35;;;23.30;93.20;;;;;;5024655;28;20029;-34
2023/06/26 09:33:59;;;;;;;2.35;1.40;;;23.30;93.00;;;;;;5023991;28;20024;-35
2023/06/26 09:36:28;;;;;;;3.50;1.23;;;23.30;92.70;;;;;;5023943;28;20045;-35
2023/06/26 09:38:54;;;;;;;2.22;1.38;;;23.30;92.20;;;;;;5024315;28;20028;-35
2023/06/26 09:41:20;;;;;;;1.92;1.20;;;23.30;92.10;;;;;;5022850;28;20029;-40
2023/06/26 09:43:47;;;;;;;2.83;1.30;;;23.30;91.40;;;;;;5024652;28;20021;-34
2023/06/26 09:46:31;;;;;;;6.18;1.65;;;23.20;91.20;;;;;;5024154;28;20033;-33
2023/06/26 09:49:08;;;;;;;2.60;1.20;;;23.10;91.40;;;;;;5024263;28;20074;-34
2023/06/26 09:51:35;;;;;;;6.28;1.35;;;23.00;91.70;;;;;;5023760;28;20040;-34
2023/06/26 09:54:02;;;;;;;3.03;1.30;;;23.00;92.20;;;;;;5023620;28;20020;-34
2023/06/26 09:56:29;;;;;;;5.55;1.50;;;23.10;92.20;;;;;;5023675;28;20053;-33
2023/06/26 09:59:03;;;;;;;5.35;1.63;;;23.20;92.10;;;;;;5024390;28;20124;-33
2023/06/26 10:01:30;;;;;;;2.78;1.00;;;23.30;92.20;;;;;;5012842;28;20057;-35
2023/06/26 10:03:57;;;;;;;3.17;1.55;;;23.40;92.20;;;;;;5023988;28;20072;-34
2023/06/26 10:06:47;;;;;;;2.42;1.25;;;23.30;91.20;;;;;;5024209;28;20025;-35
2023/06/26 10:09:16;;;;;;;5.32;1.52;;;23.10;91.50;;;;;;5023495;28;20018;-34
2023/06/26 10:11:52;;;;;;;2.33;1.13;;;23.00;92.00;;;;;;5023465;28;20049;-34
2023/06/26 10:14:19;;;;;;;3.70;1.30;;;22.90;92.10;;;;;;5024194;28;20038;-35
2023/06/26 10:16:49;;;;;;;3.38;1.42;;;22.90;91.80;;;;;;5023904;28;20416;-35
2023/06/26 10:19:23;;;;;;;4.35;1.20;;;23.00;91.70;;;;;;5024024;28;20056;-34
2023/06/26 10:21:52;;;;;;;3.15;1.33;;;23.10;91.60;;;;;;5024881;28;20017;-34
2023/06/26 10:24:19;;;;;;;5.07;1.30;;;23.20;91.80;;;;;;5023293;28;20028;-34
2023/06/26 10:26:46;;;;;;;3.45;1.25;;;23.30;91.30;;;;;;5024205;28;20037;-34
2023/06/26 10:29:14;;;;;;;4.85;1.30;;;23.20;91.00;;;;;;5024057;28;20022;-33
2023/06/26 10:31:42;;;;;;;2.20;1.17;;;23.10;90.40;;;;;;5023993;28;20140;-34
2023/06/26 10:34:08;;;;;;;2.38;1.20;;;23.10;90.10;;;;;;5024463;28;20022;-33
2023/06/26 10:36:36;;;;;;;3.47;1.00;;;23.10;90.30;;;;;;5023579;28;20030;-33
2023/06/26 10:39:05;;;;;;;4.05;1.58;;;23.20;90.40;;;;;;5024307;28;20576;-33
2023/06/26 10:41:39;;;;;;;3.60;1.23;;;23.30;90.40;;;;;;5022546;28;20042;-34
2023/06/26 10:44:11;;;;;;;2.75;0.82;;;23.50;90.50;;;;;;5023321;28;20091;-34
2023/06/26 10:46:50;;;;;;;;;;;23.70;89.30;;;;;;5023719;28;20068;-34
2023/06/26 10:49:16;;;;;;;2.45;1.00;;;23.70;87.60;;;;;;5023431;28;19916;-35
2023/06/26 10:51:50;;;;;;;1.75;1.05;;;23.80;84.60;;;;;;5022644;28;20759;-42
2023/06/26 10:54:19;;;;;;;2.15;1.00;;;23.80;85.50;;;;;;5023584;28;20103;-42
2023/06/26 10:56:58;;;;;;;2.55;1.00;;;23.80;86.20;;;;;;5022897;28;20080;-42
2023/06/26 10:59:26;;;;;;;1.77;1.10;;;23.90;85.30;;;;;;5023724;28;20053;-42
2023/06/26 11:02:02;;;;;;;1.48;0.88;;;23.90;84.90;;;;;;5023462;28;20102;-42
2023/06/26 11:04:53;;;;;;;2.97;1.27;;;23.90;85.00;;;;;;5026192;28;20025;-42
2023/06/26 11:07:19;;;;;;;2.55;1.10;;;23.80;84.30;;;;;;5026133;28;20041;-41
2023/06/26 11:10:01;;;;;;;1.60;1.00;;;23.70;84.80;;;;;;5027157;28;20030;-45
2023/06/26 11:12:43;;;;;;;1.73;0.82;;;23.50;82.80;;;;;;5025645;28;20125;-42
2023/06/26 11:15:13;;;;;;;2.10;1.23;;;23.40;83.10;;;;;;5026644;28;20067;-43
2023/06/26 11:17:39;;;;;;;2.08;1.10;;;23.40;83.60;;;;;;5026999;28;20071;-43
2023/06/26 11:20:10;;;;;;;1.45;1.10;;;23.50;82.30;;;;;;5025506;28;20121;-42
2023/06/26 11:22:40;;;;;;;2.00;1.00;;;23.50;82.70;;;;;;5026643;28;20416;-42
2023/06/26 11:25:07;;;;;;;2.03;1.10;;;23.70;83.20;;;;;;5026565;28;20029;-42
2023/06/26 11:27:41;;;;;;;2.22;1.10;;;23.70;83.60;;;;;;5026331;28;20992;-42
2023/06/26 11:30:09;;;;;;;2.55;1.00;;;23.70;82.90;;;;;;5026425;28;20021;-42
2023/06/26 11:32:37;;;;;;;1.85;1.00;;;23.70;81.80;;;;;;5025575;28;20028;-42
2023/06/26 11:35:04;;;;;;;1.20;0.80;;;23.70;81.80;;;;;;5026606;28;20026;-41
2023/06/26 11:37:31;;;;;;;1.63;1.05;;;23.80;82.60;;;;;;5026168;28;20029;-42
2023/06/26 11:39:57;;;;;;;0.95;0.80;;;23.90;83.50;;;;;;5026206;28;20102;-42
2023/06/26 11:42:25;;;;;;;1.55;1.15;;;23.90;81.60;;;;;;5026287;28;20504;-42
2023/06/26 11:44:54;;;;;;;2.13;1.10;;;23.80;81.40;;;;;;5016265;28;20038;-42
2023/06/26 11:47:22;;;;;;;2.03;1.10;;;23.80;81.40;;;;;;5025672;28;20040;-41
2023/06/26 11:49:51;;;;;;;2.42;1.00;;;23.80;81.80;;;;;;5026734;28;20329;-42
2023/06/26 11:52:17;;;;;;;2.67;1.20;;;23.90;80.90;;;;;;5025516;28;20561;-41
2023/06/26 11:54:43;;;;;;;3.15;1.15;;;23.90;80.90;;;;;;5025866;28;20112;-41
2023/06/26 11:57:20;;;;;;;2.13;1.02;;;23.90;80.90;;;;;;5025994;28;20060;-42
2023/06/26 11:59:45;;;;;;;4.13;1.10;;;23.90;82.30;;;;;;5024965;28;20017;-42
2023/06/26 12:02:13;;;;;;;2.42;1.30;;;24.00;81.10;;;;;;5025811;28;20029;-42
2023/06/26 12:04:41;;;;;;;2.65;1.17;;;24.10;81.30;;;;;;5025551;28;20049;-43
2023/06/26 12:07:09;;;;;;;1.05;0.80;;;24.10;80.40;;;;;;5025280;28;20049;-42
2023/06/26 12:09:40;;;;;;;2.90;1.30;;;24.00;79.50;;;;;;5025771;28;20099;-42
2023/06/26 12:12:06;;;;;;;2.47;1.35;;;24.00;79.50;;;;;;5006206;28;20050;-42
2023/06/26 12:14:32;;;;;;;3.15;1.30;;;24.10;79.30;;;;;;5019460;28;20022;-42
2023/06/26 12:17:10;;;;;;;6.50;1.73;;;24.10;78.50;;;;;;5026534;28;20029;-42
2023/06/26 12:19:38;;;;;;;3.20;1.10;;;24.00;78.30;;;;;;5026132;28;20476;-42
2023/06/26 12:22:08;;;;;;;1.98;1.08;;;24.00;79.10;;;;;;5025306;28;20468;-42
2023/06/26 12:24:35;;;;;;;3.30;1.20;;;24.10;79.10;;;;;;5025586;28;20037;-42
2023/06/26 12:27:01;;;;;;;2.63;1.20;;;24.10;78.80;;;;;;5024818;28;20030;-42
2023/06/26 12:29:32;;;;;;;7.40;1.33;;;24.10;77.40;;;;;;5022362;28;20103;-42
2023/06/26 12:31:58;;;;;;;1.27;0.90;;;23.80;78.10;;;;;;5026071;28;20829;-41
2023/06/26 12:34:28;;;;;;;2.42;1.20;;;23.70;77.80;;;;;;5024069;28;20053;-42
2023/06/26 12:36:53;;;;;;;1.58;0.85;;;23.60;77.30;;;;;;5025590;28;20033;-45
2023/06/26 12:39:22;;;;;;;1.35;0.85;;;23.60;78.70;;;;;;5025271;28;20369;-42
2023/06/26 12:42:00;;;;;;;1.60;1.10;;;23.80;79.10;;;;;;5026171;28;20029;-42
2023/06/26 12:44:29;;;;;;;3.47;1.00;;;23.90;78.70;;;;;;5024208;28;20022;-42
2023/06/26 12:46:57;;;;;;;1.20;1.00;;;23.90;77.90;;;;;;5014351;28;20042;-42
2023/06/26 12:49:50;;;;;;;2.22;0.90;;;23.90;76.80;;;;;;5024217;28;21005;-43